Time;durP1;ratioP1;P1;durP2;ratioP2;P2;SDS_P1;SDS_P2;PMS_P1;PMS_P2;Temp;Humidity;BMP_temperature;BMP_pressure;BME280_temperature;BME280_humidity;BME280_pressure;Samples;Min_cycle;Max_cycle;Signal;HPM_P1;HPM_P2
2021/07/27 00:02:29;;;;;;;7.63;3.22;;;;;;;;;;5033668;28;20510;-87
2021/07/27 00:05:15;;;;;;;7.15;2.90;;;;;;;;;;5032368;28;20482;-89
2021/07/27 00:08:00;;;;;;;8.30;3.20;;;;;;;;;;5031243;28;20532;-85
2021/07/27 00:10:45;;;;;;;9.07;3.45;;;;;;;;;;5044938;28;20475;-86
2021/07/27 00:13:30;;;;;;;6.53;3.30;;;;;;;;;;5034510;28;20025;-85
2021/07/27 00:16:15;;;;;;;12.20;5.00;;;;;;;;;;5038710;28;20103;-87
2021/07/27 00:19:01;;;;;;;10.13;4.03;;;;;;;;;;5023740;28;20029;-87
2021/07/27 00:21:46;;;;;;;7.28;3.55;;;;;;;;;;5025729;28;20124;-86
2021/07/27 00:24:31;;;;;;;6.65;3.20;;;;;;;;;;5028191;28;20025;-87
2021/07/27 00:27:16;;;;;;;6.25;3.13;;;;;;;;;;5031214;28;20108;-85
2021/07/27 00:30:03;;;;;;;5.40;2.88;;;;;;;;;;5033579;28;20017;-85
2021/07/27 00:32:48;;;;;;;6.90;3.50;;;;;;;;;;5027048;28;20053;-85
2021/07/27 00:35:34;;;;;;;5.38;3.22;;;;;;;;;;5024809;28;20032;-85
2021/07/27 00:38:21;;;;;;;6.30;3.45;;;;;;;;;;5038563;28;20029;-84
2021/07/27 00:41:06;;;;;;;7.30;3.70;;;;;;;;;;5040074;28;20508;-85
2021/07/27 00:43:51;;;;;;;7.43;3.45;;;;;;;;;;5023366;28;20033;-86
2021/07/27 00:46:36;;;;;;;6.07;4.05;;;;;;;;;;5027162;28;20325;-87
2021/07/27 00:49:22;;;;;;;6.80;4.50;;;;;;;;;;5035067;28;20437;-87
2021/07/27 00:52:07;;;;;;;7.60;3.55;;;;;;;;;;5029477;28;20044;-86
2021/07/27 00:54:53;;;;;;;6.68;3.42;;;;;;;;;;5026125;28;20021;-86
2021/07/27 00:57:39;;;;;;;5.85;3.78;;;;;;;;;;5011283;28;20108;-86
2021/07/27 01:00:24;;;;;;;8.07;4.07;;;;;;;;;;5026993;28;20060;-85
2021/07/27 01:03:09;;;;;;;9.88;3.28;;;;;;;;;;5019918;28;20030;-86
2021/07/27 01:05:54;;;;;;;6.85;3.40;;;;;;;;;;5022526;28;20049;-84
2021/07/27 01:08:40;;;;;;;8.15;3.92;;;;;;;;;;5020655;28;20031;-85
2021/07/27 01:11:25;;;;;;;6.85;3.70;;;;;;;;;;5009475;28;20108;-86
2021/07/27 01:14:11;;;;;;;6.30;3.70;;;;;;;;;;5024151;28;20025;-87
2021/07/27 01:16:56;;;;;;;10.40;4.13;;;;;;;;;;5021365;28;20029;-85
2021/07/27 01:37:58;;;;;;;6.05;3.95;;;;;;;;;;5021023;28;20017;-86
2021/07/27 01:40:59;;;;;;;8.35;3.75;;;;;;;;;;5029847;28;20127;-87
2021/07/27 01:43:44;;;;;;;8.82;3.90;;;;;;;;;;5025876;28;20033;-85
2021/07/27 01:46:33;;;;;;;9.82;3.75;;;;;;;;;;5025225;28;20017;-85
2021/07/27 01:49:19;;;;;;;;;;;;;;;;;;5040236;28;20091;-88
2021/07/27 01:52:04;;;;;;;10.43;4.30;;;;;;;;;;5027344;28;19917;-87
2021/07/27 01:54:54;;;;;;;10.05;5.13;;;;;;;;;;5038175;28;20028;-90
2021/07/27 01:57:40;;;;;;;7.10;3.63;;;;;;;;;;5028161;28;20499;-85
2021/07/27 02:00:25;;;;;;;7.13;3.72;;;;;;;;;;5011691;28;20513;-89
2021/07/27 02:03:10;;;;;;;8.10;4.07;;;;;;;;;;5020164;28;20030;-86
2021/07/27 02:05:56;;;;;;;8.40;4.20;;;;;;;;;;5029994;28;20407;-90
2021/07/27 02:08:41;;;;;;;7.70;4.18;;;;;;;;;;5023709;28;20028;-87
2021/07/27 02:11:35;;;;;;;5.85;3.75;;;;;;;;;;5024557;28;20487;-86
2021/07/27 02:14:23;;;;;;;8.57;3.97;;;;;;;;;;5022998;28;20029;-86
2021/07/27 02:17:08;;;;;;;12.63;4.93;;;;;;;;;;5017484;28;20040;-86
2021/07/27 02:19:53;;;;;;;8.05;3.78;;;;;;;;;;5031685;28;20029;-87
2021/07/27 02:22:39;;;;;;;9.88;4.45;;;;;;;;;;5021623;28;20496;-85
2021/07/27 02:25:25;;;;;;;10.48;4.03;;;;;;;;;;5016460;28;20029;-90
2021/07/27 02:28:12;;;;;;;7.55;4.18;;;;;;;;;;5026741;28;20460;-86
2021/07/27 02:31:00;;;;;;;11.20;4.32;;;;;;;;;;5009037;28;20153;-90
2021/07/27 02:33:45;;;;;;;5.47;4.07;;;;;;;;;;5021219;28;20525;-88
2021/07/27 02:36:33;;;;;;;10.35;4.38;;;;;;;;;;5021879;28;20583;-86
2021/07/27 02:39:18;;;;;;;8.55;4.80;;;;;;;;;;5023804;28;20065;-89
2021/07/27 02:42:03;;;;;;;8.13;4.70;;;;;;;;;;5004034;28;20053;-86
2021/07/27 02:44:49;;;;;;;8.60;4.95;;;;;;;;;;5004261;28;20037;-86
2021/07/27 02:47:34;;;;;;;7.70;4.22;;;;;;;;;;4998500;28;20346;-86
2021/07/27 02:50:19;;;;;;;11.07;4.30;;;;;;;;;;4994917;28;20474;-87
2021/07/27 02:53:05;;;;;;;6.90;4.00;;;;;;;;;;5001545;28;20148;-87
2021/07/27 02:59:05;;;;;;;6.10;4.40;;;;;;;;;;4999244;28;20109;-86
2021/07/27 03:01:50;;;;;;;9.63;4.35;;;;;;;;;;4994251;28;20026;-87
2021/07/27 03:04:35;;;;;;;7.90;4.50;;;;;;;;;;5003207;28;20025;-89
2021/07/27 03:07:21;;;;;;;6.85;3.97;;;;;;;;;;4997486;28;20021;-86
2021/07/27 03:10:21;;;;;;;8.98;4.40;;;;;;;;;;5007199;28;20485;-87
2021/07/27 03:13:07;;;;;;;7.45;4.07;;;;;;;;;;5011067;28;20077;-86
2021/07/27 03:15:52;;;;;;;7.45;4.03;;;;;;;;;;5003307;28;20307;-87
2021/07/27 03:18:37;;;;;;;5.93;4.20;;;;;;;;;;5001120;28;20765;-88
2021/07/27 03:21:24;;;;;;;8.50;4.15;;;;;;;;;;5001621;28;20443;-89
2021/07/27 03:24:11;;;;;;;7.03;4.20;;;;;;;;;;4996179;28;20030;-90
2021/07/27 03:26:58;;;;;;;8.05;4.57;;;;;;;;;;5010118;28;20041;-90
2021/07/27 03:29:43;;;;;;;9.15;5.07;;;;;;;;;;5002703;28;20033;-87
2021/07/27 03:32:28;;;;;;;8.93;4.43;;;;;;;;;;4993080;28;20544;-86
2021/07/27 03:35:14;;;;;;;6.43;4.53;;;;;;;;;;5002864;28;20037;-85
2021/07/27 03:38:03;;;;;;;8.50;4.30;;;;;;;;;;5009914;28;20413;-85
2021/07/27 03:40:48;;;;;;;8.25;4.07;;;;;;;;;;5003001;28;20077;-86
2021/07/27 03:43:33;;;;;;;10.20;4.68;;;;;;;;;;5001586;28;20139;-86
2021/07/27 03:46:18;;;;;;;6.32;4.70;;;;;;;;;;4997962;28;20525;-87
2021/07/27 03:49:04;;;;;;;7.57;4.53;;;;;;;;;;5001428;28;20073;-88
2021/07/27 03:51:49;;;;;;;6.45;4.68;;;;;;;;;;5002621;28;20153;-86
2021/07/27 03:54:34;;;;;;;8.70;5.45;;;;;;;;;;4991747;28;20037;-86
2021/07/27 03:57:19;;;;;;;6.38;4.57;;;;;;;;;;5001780;28;20494;-90
2021/07/27 04:00:06;;;;;;;7.90;4.93;;;;;;;;;;5000570;28;20026;-86
2021/07/27 04:02:51;;;;;;;8.35;4.43;;;;;;;;;;5000519;28;20023;-86
2021/07/27 04:05:36;;;;;;;9.05;4.35;;;;;;;;;;5001047;28;20025;-89
2021/07/27 04:08:21;;;;;;;7.47;4.20;;;;;;;;;;5002644;28;20026;-85
2021/07/27 04:11:07;;;;;;;8.57;5.25;;;;;;;;;;4998116;28;20149;-86
2021/07/27 04:13:52;;;;;;;11.02;4.93;;;;;;;;;;4999674;28;20060;-85
2021/07/27 04:16:38;;;;;;;9.55;5.18;;;;;;;;;;4995146;28;20350;-86
2021/07/27 04:19:23;;;;;;;8.70;4.88;;;;;;;;;;5007026;28;20358;-86
2021/07/27 04:22:08;;;;;;;8.43;4.95;;;;;;;;;;4997207;28;20157;-91
2021/07/27 04:24:56;;;;;;;8.80;4.97;;;;;;;;;;5005241;28;20032;-89
2021/07/27 04:27:41;;;;;;;7.10;5.60;;;;;;;;;;4999338;28;20136;-89
2021/07/27 04:30:26;;;;;;;11.73;5.85;;;;;;;;;;5008708;28;20030;-90
2021/07/27 04:33:12;;;;;;;7.78;4.60;;;;;;;;;;5009523;28;20505;-89
2021/07/27 04:35:59;;;;;;;9.57;5.88;;;;;;;;;;5004580;28;20069;-89
2021/07/27 04:38:44;;;;;;;11.45;5.13;;;;;;;;;;5005024;28;20032;-92
2021/07/27 04:41:30;;;;;;;5.95;4.68;;;;;;;;;;5008627;28;20127;-89
2021/07/27 04:44:16;;;;;;;8.10;4.65;;;;;;;;;;5007973;28;20037;-88
2021/07/27 04:47:01;;;;;;;9.23;5.30;;;;;;;;;;5003711;28;20497;-90
2021/07/27 04:49:47;;;;;;;10.05;4.72;;;;;;;;;;4994232;28;20126;-91
2021/07/27 04:52:32;;;;;;;12.02;4.78;;;;;;;;;;5003181;28;20022;-91
2021/07/27 04:55:17;;;;;;;11.50;5.65;;;;;;;;;;5011823;28;20358;-90
2021/07/27 04:58:06;;;;;;;7.95;5.50;;;;;;;;;;5003717;28;20033;-89
2021/07/27 05:00:51;;;;;;;8.95;5.25;;;;;;;;;;5005965;28;20038;-89
2021/07/27 05:03:36;;;;;;;9.95;5.72;;;;;;;;;;5001458;28;20065;-87
2021/07/27 05:06:24;;;;;;;12.18;5.50;;;;;;;;;;5003131;28;20363;-89
2021/07/27 05:09:10;;;;;;;9.95;5.40;;;;;;;;;;5018353;28;20489;-90
2021/07/27 05:11:56;;;;;;;10.13;5.68;;;;;;;;;;5020538;28;20041;-88
2021/07/27 05:14:41;;;;;;;11.18;6.00;;;;;;;;;;5003990;28;20024;-89
2021/07/27 05:17:27;;;;;;;7.53;5.35;;;;;;;;;;5004850;28;20026;-89
2021/07/27 05:20:12;;;;;;;9.68;5.70;;;;;;;;;;5006793;28;20022;-86
2021/07/27 05:22:57;;;;;;;9.98;4.65;;;;;;;;;;4995196;28;20104;-87
2021/07/27 05:25:43;;;;;;;9.27;5.30;;;;;;;;;;5001930;28;20033;-86
2021/07/27 05:28:28;;;;;;;8.95;5.90;;;;;;;;;;4982133;28;20044;-84
2021/07/27 05:31:13;;;;;;;7.80;5.55;;;;;;;;;;5002078;28;20025;-84
2021/07/27 05:33:59;;;;;;;7.85;5.30;;;;;;;;;;5001131;28;20457;-89
2021/07/27 05:36:44;;;;;;;8.80;6.18;;;;;;;;;;5006838;28;20022;-88
2021/07/27 05:39:29;;;;;;;13.52;5.60;;;;;;;;;;5006782;28;20049;-83
2021/07/27 05:42:15;;;;;;;12.52;6.40;;;;;;;;;;5003391;28;20125;-89
2021/07/27 05:45:00;;;;;;;9.57;5.63;;;;;;;;;;4998249;28;20058;-86
2021/07/27 05:47:46;;;;;;;7.75;5.82;;;;;;;;;;5008479;28;20109;-86
2021/07/27 05:50:31;;;;;;;14.48;6.35;;;;;;;;;;5000473;28;20018;-89
2021/07/27 05:53:16;;;;;;;11.95;5.93;;;;;;;;;;5002110;28;20249;-83
2021/07/27 05:56:01;;;;;;;11.98;6.05;;;;;;;;;;5005311;28;20026;-85
2021/07/27 05:58:46;;;;;;;9.88;5.40;;;;;;;;;;5015335;28;20026;-88
2021/07/27 06:01:32;;;;;;;13.35;6.32;;;;;;;;;;4978274;28;20049;-89
2021/07/27 06:04:18;;;;;;;9.60;5.90;;;;;;;;;;5009027;28;20032;-87
2021/07/27 06:07:04;;;;;;;9.48;6.18;;;;;;;;;;5005342;28;20031;-87
2021/07/27 06:09:49;;;;;;;58.03;16.98;;;;;;;;;;5003793;28;20049;-87
2021/07/27 06:12:34;;;;;;;10.55;7.00;;;;;;;;;;5020984;28;20058;-90
2021/07/27 06:15:19;;;;;;;10.07;5.60;;;;;;;;;;5004678;28;20033;-87
2021/07/27 06:18:05;;;;;;;11.68;6.05;;;;;;;;;;4998692;28;20116;-89
2021/07/27 06:24:50;;;;;;;9.82;5.80;;;;;;;;;;4837124;29;20175;-88
2021/07/27 06:27:35;;;;;;;16.48;6.57;;;;;;;;;;4933616;28;20120;-88
2021/07/27 06:30:20;;;;;;;11.65;5.80;;;;;;;;;;5004807;28;20464;-89
2021/07/27 06:33:06;;;;;;;10.85;6.20;;;;;;;;;;4999539;28;20030;-86
2021/07/27 06:35:57;;;;;;;9.75;5.55;;;;;;;;;;5002134;28;20022;-87
2021/07/27 06:38:43;;;;;;;16.45;6.72;;;;;;;;;;5002611;28;20129;-88
2021/07/27 06:41:28;;;;;;;9.07;6.18;;;;;;;;;;5013137;28;20515;-86
2021/07/27 06:44:13;;;;;;;10.13;5.95;;;;;;;;;;5011108;28;20086;-92
2021/07/27 06:46:59;;;;;;;11.05;6.93;;;;;;;;;;5023080;28;20088;-88
2021/07/27 06:49:44;;;;;;;10.70;5.85;;;;;;;;;;5025189;28;20022;-84
2021/07/27 06:52:30;;;;;;;11.95;6.20;;;;;;;;;;5015422;28;20071;-86
2021/07/27 06:55:19;;;;;;;8.35;5.85;;;;;;;;;;5028526;28;20025;-88
2021/07/27 06:58:04;;;;;;;13.85;8.30;;;;;;;;;;5029282;28;20033;-86
2021/07/27 07:00:50;;;;;;;13.48;8.98;;;;;;;;;;5022405;28;20034;-87
2021/07/27 07:03:42;;;;;;;14.63;5.78;;;;;;;;;;5019993;28;20042;-86
2021/07/27 07:06:28;;;;;;;10.13;5.68;;;;;;;;;;5022211;28;20228;-85
2021/07/27 07:09:13;;;;;;;10.18;5.95;;;;;;;;;;5017655;28;20059;-86
2021/07/27 07:11:58;;;;;;;9.98;6.32;;;;;;;;;;5017428;28;20527;-81
2021/07/27 07:14:44;;;;;;;9.07;5.25;;;;;;;;;;5025848;28;20040;-82
2021/07/27 07:17:29;;;;;;;9.32;5.68;;;;;;;;;;5025565;28;20795;-81
2021/07/27 07:20:15;;;;;;;8.43;4.90;;;;;;;;;;5016705;28;20036;-83
2021/07/27 07:23:00;;;;;;;10.38;5.65;;;;;;;;;;5022532;28;20025;-83
2021/07/27 07:25:46;;;;;;;15.93;6.35;;;;;;;;;;5023682;28;20110;-86
2021/07/27 07:28:32;;;;;;;8.85;5.28;;;;;;;;;;5015526;28;20022;-83
2021/07/27 07:31:17;;;;;;;20.98;17.70;;;;;;;;;;5020681;28;20030;-83
2021/07/27 07:34:02;;;;;;;11.73;7.55;;;;;;;;;;5015724;28;20384;-85
2021/07/27 07:36:50;;;;;;;9.05;5.25;;;;;;;;;;5008852;28;20017;-83
2021/07/27 07:39:35;;;;;;;11.65;5.47;;;;;;;;;;5015284;28;20117;-83
2021/07/27 07:42:20;;;;;;;8.65;5.07;;;;;;;;;;5001929;28;20043;-84
2021/07/27 07:45:06;;;;;;;9.80;5.30;;;;;;;;;;5014463;28;20124;-81
2021/07/27 07:47:51;;;;;;;7.60;5.30;;;;;;;;;;5004919;28;20447;-83
2021/07/27 07:50:36;;;;;;;6.95;4.85;;;;;;;;;;5000059;28;20539;-82
2021/07/27 07:53:22;;;;;;;7.55;5.22;;;;;;;;;;5003256;28;20025;-83
2021/07/27 07:56:08;;;;;;;6.72;4.72;;;;;;;;;;5006237;28;20507;-81
2021/07/27 07:58:53;;;;;;;8.85;5.47;;;;;;;;;;4997354;28;20044;-81
2021/07/27 08:01:44;;;;;;;9.98;5.18;;;;;;;;;;4994856;28;20033;-82
2021/07/27 08:04:29;;;;;;;7.75;5.45;;;;;;;;;;5000539;28;20029;-87
2021/07/27 08:07:15;;;;;;;7.22;5.28;;;;;;;;;;5002685;28;20091;-82
2021/07/27 08:10:00;;;;;;;16.73;14.05;;;;;;;;;;5001327;28;20034;-82
2021/07/27 08:12:48;;;;;;;8.18;5.50;;;;;;;;;;4999168;28;20092;-81
2021/07/27 08:15:33;;;;;;;6.50;4.70;;;;;;;;;;4998847;28;20049;-84
2021/07/27 08:18:18;;;;;;;12.98;5.93;;;;;;;;;;5003092;28;20033;-80
2021/07/27 08:21:04;;;;;;;8.52;5.25;;;;;;;;;;4994781;28;20061;-83
2021/07/27 08:23:49;;;;;;;8.02;5.57;;;;;;;;;;5011011;28;20045;-80
2021/07/27 08:26:38;;;;;;;7.70;5.68;;;;;;;;;;4994919;28;20049;-84
2021/07/27 08:29:53;;;;;;;;;;;;;;;;;;;;;
2021/07/27 08:32:49;;;;;;;9.48;5.50;;;;;;;;;;5014512;28;20084;-81
2021/07/27 08:35:34;;;;;;;7.18;4.78;;;;;;;;;;5004556;28;20113;-81
2021/07/27 08:38:22;;;;;;;7.68;4.97;;;;;;;;;;5006489;28;20038;-79
2021/07/27 08:41:08;;;;;;;8.43;4.95;;;;;;;;;;5003825;28;20802;-83
2021/07/27 08:43:53;;;;;;;6.55;5.20;;;;;;;;;;5014495;28;20048;-82
2021/07/27 08:46:38;;;;;;;8.80;5.05;;;;;;;;;;5006122;28;20037;-79
2021/07/27 08:49:23;;;;;;;8.18;5.80;;;;;;;;;;5002152;28;20027;-80
2021/07/27 08:52:08;;;;;;;7.55;5.47;;;;;;;;;;5003971;28;20034;-82
2021/07/27 08:54:54;;;;;;;6.90;5.25;;;;;;;;;;4994707;28;20484;-81
2021/07/27 08:57:45;;;;;;;7.88;5.40;;;;;;;;;;4997615;28;20018;-80
2021/07/27 09:00:31;;;;;;;7.18;5.40;;;;;;;;;;5002891;28;21530;-81
2021/07/27 09:03:18;;;;;;;7.47;5.35;;;;;;;;;;4990929;28;20175;-81
2021/07/27 09:06:06;;;;;;;6.35;5.05;;;;;;;;;;4998005;28;20029;-80
2021/07/27 09:09:08;;;;;;;6.60;5.37;;;;;;;;;;5001692;28;20080;-80
2021/07/27 09:11:53;;;;;;;10.38;5.70;;;;;;;;;;5004669;28;20068;-82
2021/07/27 09:14:44;;;;;;;8.32;5.15;;;;;;;;;;5005961;28;20042;-80
2021/07/27 09:17:30;;;;;;;7.15;5.13;;;;;;;;;;5008172;28;20026;-81
2021/07/27 09:20:29;;;;;;;8.45;5.68;;;;;;;;;;5006132;28;20117;-81
2021/07/27 09:23:21;;;;;;;9.00;5.03;;;;;;;;;;4999863;28;20575;-80
2021/07/27 09:26:10;;;;;;;7.13;4.70;;;;;;;;;;5000410;28;20041;-82
2021/07/27 09:29:02;;;;;;;8.70;5.55;;;;;;;;;;5005607;28;20022;-79
2021/07/27 09:31:51;;;;;;;8.75;5.30;;;;;;;;;;5003104;28;20022;-83
2021/07/27 09:34:36;;;;;;;;;;;;;;;;;;4999240;28;20048;-80
2021/07/27 09:37:25;;;;;;;10.18;7.80;;;;;;;;;;4995382;28;20123;-79
2021/07/27 09:40:11;;;;;;;9.82;6.00;;;;;;;;;;4996535;28;20033;-79
2021/07/27 09:42:56;;;;;;;9.40;6.13;;;;;;;;;;5025026;28;20507;-79
2021/07/27 09:45:42;;;;;;;8.35;5.40;;;;;;;;;;5030919;28;20025;-79
2021/07/27 09:48:28;;;;;;;7.10;5.13;;;;;;;;;;5021320;28;20051;-79
2021/07/27 09:51:14;;;;;;;7.22;5.07;;;;;;;;;;5029809;28;20089;-79
2021/07/27 09:54:00;;;;;;;8.07;5.10;;;;;;;;;;5028674;28;20164;-80
2021/07/27 09:56:46;;;;;;;5.90;4.80;;;;;;;;;;5027591;28;20541;-80
2021/07/27 09:59:31;;;;;;;7.55;4.90;;;;;;;;;;5035656;28;20029;-78
2021/07/27 10:02:17;;;;;;;7.35;4.45;;;;;;;;;;5031715;28;20028;-79
2021/07/27 10:05:03;;;;;;;6.85;4.90;;;;;;;;;;5035754;28;20025;-79
2021/07/27 10:07:55;;;;;;;9.25;4.82;;;;;;;;;;5035527;28;20025;-80
2021/07/27 10:10:43;;;;;;;6.55;4.38;;;;;;;;;;5035488;28;20021;-80
2021/07/27 10:13:32;;;;;;;7.53;5.00;;;;;;;;;;5032791;28;20052;-79
2021/07/27 10:16:22;;;;;;;6.78;4.60;;;;;;;;;;5035608;28;20467;-80
2021/07/27 10:19:12;;;;;;;6.53;4.38;;;;;;;;;;5025929;28;20045;-79
2021/07/27 10:22:05;;;;;;;7.18;4.10;;;;;;;;;;5031964;28;20063;-79
2021/07/27 10:24:51;;;;;;;7.50;4.70;;;;;;;;;;5023284;28;20028;-80
2021/07/27 10:27:45;;;;;;;23.40;20.92;;;;;;;;;;5029197;28;20568;-80
2021/07/27 10:30:36;;;;;;;9.77;6.75;;;;;;;;;;5022802;28;20174;-80
2021/07/27 10:33:27;;;;;;;6.60;4.82;;;;;;;;;;5030661;28;20028;-78
2021/07/27 10:36:13;;;;;;;7.10;4.47;;;;;;;;;;5021480;28;20075;-82
2021/07/27 10:39:15;;;;;;;9.25;5.43;;;;;;;;;;5038728;28;20083;-78
2021/07/27 10:42:10;;;;;;;7.20;5.00;;;;;;;;;;5023548;28;20060;-78
2021/07/27 10:44:55;;;;;;;7.35;4.60;;;;;;;;;;5037528;28;20042;-79
2021/07/27 10:47:47;;;;;;;5.15;4.30;;;;;;;;;;5029887;28;20029;-78
2021/07/27 10:50:33;;;;;;;6.05;4.40;;;;;;;;;;5023886;28;20037;-82
2021/07/27 10:53:22;;;;;;;6.93;4.60;;;;;;;;;;5028668;28;20029;-82
2021/07/27 10:56:08;;;;;;;6.50;4.55;;;;;;;;;;5033497;28;20029;-79
2021/07/27 10:58:53;;;;;;;6.43;4.88;;;;;;;;;;5033518;28;20025;-79
2021/07/27 11:01:38;;;;;;;6.22;5.07;;;;;;;;;;5029483;28;20402;-78
2021/07/27 11:04:27;;;;;;;6.50;4.47;;;;;;;;;;5031687;28;20032;-77
2021/07/27 11:07:13;;;;;;;6.05;4.32;;;;;;;;;;5030396;28;20029;-78
2021/07/27 11:09:58;;;;;;;8.13;5.20;;;;;;;;;;5021704;28;20102;-81
2021/07/27 11:12:44;;;;;;;22.63;13.05;;;;;;;;;;5032682;28;20116;-80
2021/07/27 11:15:29;;;;;;;15.88;10.32;;;;;;;;;;5038248;28;20025;-83
2021/07/27 11:18:15;;;;;;;15.38;8.23;;;;;;;;;;5022642;28;20040;-78
2021/07/27 11:21:01;;;;;;;12.75;8.10;;;;;;;;;;5033154;28;20108;-80
2021/07/27 11:23:47;;;;;;;13.98;7.40;;;;;;;;;;5032899;28;20029;-79
2021/07/27 11:26:36;;;;;;;10.35;7.57;;;;;;;;;;5034493;28;20090;-80
2021/07/27 11:29:21;;;;;;;;;;;;;;;;;;5037493;28;20041;-82
2021/07/27 11:32:13;;;;;;;5.55;4.45;;;;;;;;;;5035492;28;19912;-78
2021/07/27 11:34:59;;;;;;;8.15;4.32;;;;;;;;;;5039567;28;20070;-78
2021/07/27 11:37:45;;;;;;;6.43;4.47;;;;;;;;;;5027773;28;21605;-79
2021/07/27 11:40:30;;;;;;;5.63;4.10;;;;;;;;;;5023755;28;20033;-81
2021/07/27 11:43:17;;;;;;;7.22;4.53;;;;;;;;;;5028204;28;20034;-77
2021/07/27 11:46:13;;;;;;;6.38;4.22;;;;;;;;;;5033076;28;20086;-77
2021/07/27 11:48:58;;;;;;;4.80;3.80;;;;;;;;;;5046331;28;20184;-81
2021/07/27 11:51:43;;;;;;;5.72;4.30;;;;;;;;;;5024620;28;20028;-78
2021/07/27 11:54:31;;;;;;;6.85;4.32;;;;;;;;;;5029656;28;20037;-82
2021/07/27 11:57:20;;;;;;;6.60;4.35;;;;;;;;;;5034478;28;20026;-80
2021/07/27 12:00:09;;;;;;;6.97;4.10;;;;;;;;;;5038761;28;20039;-78
2021/07/27 12:02:54;;;;;;;5.15;4.03;;;;;;;;;;5031671;28;20238;-81
2021/07/27 12:05:39;;;;;;;6.43;4.50;;;;;;;;;;5031704;28;20036;-82
2021/07/27 12:08:25;;;;;;;6.90;4.63;;;;;;;;;;5027178;28;20029;-79
2021/07/27 12:11:10;;;;;;;7.60;4.90;;;;;;;;;;5032644;28;20116;-78
2021/07/27 12:13:55;;;;;;;5.15;3.90;;;;;;;;;;5031033;28;20547;-79
2021/07/27 12:16:40;;;;;;;6.88;4.18;;;;;;;;;;5013089;28;20030;-78
2021/07/27 12:19:25;;;;;;;6.22;4.53;;;;;;;;;;5030918;28;20380;-83
2021/07/27 12:22:11;;;;;;;6.70;4.05;;;;;;;;;;5024345;28;20468;-78
2021/07/27 12:24:56;;;;;;;6.97;4.22;;;;;;;;;;5028834;28;20519;-79
2021/07/27 12:27:42;;;;;;;8.25;4.53;;;;;;;;;;5025554;28;20526;-81
2021/07/27 12:30:27;;;;;;;5.60;4.53;;;;;;;;;;5033051;28;20071;-78
2021/07/27 12:33:13;;;;;;;7.03;4.68;;;;;;;;;;5022776;28;20073;-77
2021/07/27 12:36:02;;;;;;;10.98;4.78;;;;;;;;;;5035278;28;20084;-78
2021/07/27 12:38:48;;;;;;;8.25;4.13;;;;;;;;;;5033981;28;20029;-78
2021/07/27 12:41:33;;;;;;;6.97;4.50;;;;;;;;;;5030413;28;20049;-80
2021/07/27 12:44:19;;;;;;;5.95;3.80;;;;;;;;;;5025892;28;20071;-80
2021/07/27 12:47:04;;;;;;;4.60;4.07;;;;;;;;;;5031359;28;20032;-79
2021/07/27 12:49:49;;;;;;;5.07;3.80;;;;;;;;;;5033602;28;20047;-79
2021/07/27 12:52:34;;;;;;;11.75;9.40;;;;;;;;;;5027543;28;20439;-79
2021/07/27 12:55:20;;;;;;;7.97;5.75;;;;;;;;;;5042740;28;20387;-79
2021/07/27 12:58:05;;;;;;;6.30;4.60;;;;;;;;;;5031480;28;20051;-78
2021/07/27 13:00:50;;;;;;;8.38;4.95;;;;;;;;;;5029478;28;20494;-78
2021/07/27 13:03:35;;;;;;;6.80;3.58;;;;;;;;;;5037874;28;20504;-78
2021/07/27 13:06:20;;;;;;;4.60;3.92;;;;;;;;;;5032792;28;20037;-76
2021/07/27 13:09:06;;;;;;;7.53;4.10;;;;;;;;;;5033879;28;20044;-78
2021/07/27 13:11:51;;;;;;;5.82;4.03;;;;;;;;;;5043554;28;20016;-78
2021/07/27 13:14:36;;;;;;;9.13;3.90;;;;;;;;;;5027024;28;20070;-79
2021/07/27 13:17:21;;;;;;;5.53;4.13;;;;;;;;;;5029613;28;20106;-78
2021/07/27 13:20:07;;;;;;;4.40;3.67;;;;;;;;;;5039718;28;20112;-86
2021/07/27 13:22:52;;;;;;;10.65;7.55;;;;;;;;;;5024782;28;20055;-86
2021/07/27 13:25:37;;;;;;;18.08;15.85;;;;;;;;;;5023182;28;20033;-83
2021/07/27 13:28:22;;;;;;;7.55;5.15;;;;;;;;;;5011746;28;20040;-82
2021/07/27 13:31:08;;;;;;;4.75;3.78;;;;;;;;;;5028948;28;20036;-80
2021/07/27 13:33:53;;;;;;;7.82;3.90;;;;;;;;;;5025149;28;20480;-81
2021/07/27 13:36:38;;;;;;;8.18;4.63;;;;;;;;;;5030824;28;20020;-82
2021/07/27 13:39:23;;;;;;;8.02;4.13;;;;;;;;;;5038033;28;20028;-83
2021/07/27 13:42:09;;;;;;;6.35;4.63;;;;;;;;;;5024403;28;20148;-83
2021/07/27 13:44:54;;;;;;;8.85;4.53;;;;;;;;;;5023999;28;20068;-81
2021/07/27 13:47:39;;;;;;;7.55;4.55;;;;;;;;;;5028388;28;20035;-80
2021/07/27 13:50:24;;;;;;;7.03;4.57;;;;;;;;;;5032427;28;20036;-81
2021/07/27 13:53:09;;;;;;;8.40;4.53;;;;;;;;;;5042098;28;20025;-80
2021/07/27 13:55:56;;;;;;;7.45;4.50;;;;;;;;;;5030472;28;20032;-80
2021/07/27 13:58:41;;;;;;;6.00;3.85;;;;;;;;;;5035013;28;20351;-80
2021/07/27 14:01:27;;;;;;;13.43;11.05;;;;;;;;;;5020703;28;20428;-80
2021/07/27 14:04:12;;;;;;;23.52;21.08;;;;;;;;;;5031877;28;20029;-80
2021/07/27 14:06:58;;;;;;;12.38;9.77;;;;;;;;;;5029480;28;20037;-84
2021/07/27 14:09:43;;;;;;;7.43;5.35;;;;;;;;;;5024439;28;20096;-80
2021/07/27 14:12:28;;;;;;;8.07;4.28;;;;;;;;;;5020673;28;20159;-79
2021/07/27 14:15:14;;;;;;;6.65;4.25;;;;;;;;;;5025190;28;20070;-80
2021/07/27 14:17:59;;;;;;;8.65;5.00;;;;;;;;;;5031878;28;20159;-82
2021/07/27 14:20:44;;;;;;;6.03;4.15;;;;;;;;;;5027415;28;20115;-80
2021/07/27 14:23:29;;;;;;;7.22;4.68;;;;;;;;;;5029796;28;20163;-82
2021/07/27 14:26:14;;;;;;;8.35;4.75;;;;;;;;;;5015846;28;20234;-79
2021/07/27 14:29:00;;;;;;;8.15;4.63;;;;;;;;;;5025354;28;20017;-80
2021/07/27 14:31:46;;;;;;;7.53;4.65;;;;;;;;;;5029228;28;20046;-81
2021/07/27 14:34:31;;;;;;;6.55;4.97;;;;;;;;;;5028885;28;20029;-80
2021/07/27 14:37:16;;;;;;;6.50;4.72;;;;;;;;;;5025632;28;20025;-81
2021/07/27 14:40:02;;;;;;;8.95;5.50;;;;;;;;;;5030052;28;20057;-79
2021/07/27 14:42:47;;;;;;;5.90;4.75;;;;;;;;;;5024255;28;20483;-84
2021/07/27 14:45:32;;;;;;;9.77;4.93;;;;;;;;;;5027566;28;20078;-82
2021/07/27 14:48:19;;;;;;;6.30;4.32;;;;;;;;;;5033130;28;20135;-80
2021/07/27 14:51:04;;;;;;;12.38;10.32;;;;;;;;;;5041911;28;20033;-80
2021/07/27 14:53:50;;;;;;;8.30;5.80;;;;;;;;;;5026308;28;20474;-81
2021/07/27 14:56:38;;;;;;;11.13;5.68;;;;;;;;;;5031412;28;20496;-80
2021/07/27 14:59:23;;;;;;;6.53;5.05;;;;;;;;;;5044624;28;20064;-81
2021/07/27 15:02:08;;;;;;;8.48;5.60;;;;;;;;;;5026791;28;20040;-80
2021/07/27 15:04:54;;;;;;;11.15;5.75;;;;;;;;;;5036385;28;20032;-81
2021/07/27 15:07:39;;;;;;;5.97;4.82;;;;;;;;;;5037253;28;20029;-83
2021/07/27 15:10:24;;;;;;;8.80;5.30;;;;;;;;;;5030647;28;20028;-81
2021/07/27 15:13:09;;;;;;;7.38;5.20;;;;;;;;;;5032115;28;20028;-81
2021/07/27 15:15:54;;;;;;;8.95;5.40;;;;;;;;;;5032859;28;20025;-80
2021/07/27 15:18:40;;;;;;;9.70;5.05;;;;;;;;;;5029484;28;20450;-80
2021/07/27 15:21:25;;;;;;;7.75;5.25;;;;;;;;;;5023545;28;20107;-81
2021/07/27 15:24:10;;;;;;;6.70;4.95;;;;;;;;;;5028907;28;20033;-81
2021/07/27 15:26:56;;;;;;;7.85;5.78;;;;;;;;;;5020391;28;20037;-81
2021/07/27 15:29:41;;;;;;;12.52;10.18;;;;;;;;;;5027888;28;20097;-81
2021/07/27 15:32:27;;;;;;;24.02;18.88;;;;;;;;;;5023517;28;20862;-80
2021/07/27 15:35:13;;;;;;;10.20;6.82;;;;;;;;;;5026949;28;20017;-80
2021/07/27 15:37:58;;;;;;;7.57;5.53;;;;;;;;;;5027173;28;20091;-83
2021/07/27 15:40:43;;;;;;;12.02;5.25;;;;;;;;;;5020346;28;20045;-79
2021/07/27 15:43:28;;;;;;;6.57;5.38;;;;;;;;;;5035476;28;20104;-80
2021/07/27 15:46:13;;;;;;;7.53;5.20;;;;;;;;;;5039618;28;20029;-81
2021/07/27 15:48:59;;;;;;;13.18;6.78;;;;;;;;;;5029027;28;20021;-80
2021/07/27 15:51:44;;;;;;;8.10;5.10;;;;;;;;;;5021671;28;20083;-80
2021/07/27 15:54:29;;;;;;;7.70;5.57;;;;;;;;;;5032108;28;20024;-83
2021/07/27 15:57:14;;;;;;;8.00;5.40;;;;;;;;;;5029538;28;20032;-81
2021/07/27 15:59:59;;;;;;;10.77;6.15;;;;;;;;;;5032452;28;21093;-80
2021/07/27 16:02:44;;;;;;;10.60;5.85;;;;;;;;;;5022687;28;20548;-80
2021/07/27 16:05:30;;;;;;;8.55;5.63;;;;;;;;;;5026280;28;20067;-81
2021/07/27 16:08:15;;;;;;;7.28;5.20;;;;;;;;;;5018354;28;20026;-80
2021/07/27 16:11:00;;;;;;;10.93;5.38;;;;;;;;;;5022727;28;20048;-84
2021/07/27 16:13:45;;;;;;;8.70;5.72;;;;;;;;;;5027646;28;20082;-79
2021/07/27 16:16:30;;;;;;;15.63;10.75;;;;;;;;;;5033451;28;20021;-80
2021/07/27 16:19:16;;;;;;;13.38;9.15;;;;;;;;;;5020991;28;20075;-80
2021/07/27 16:22:01;;;;;;;11.07;6.22;;;;;;;;;;5034285;28;20033;-80
2021/07/27 16:24:46;;;;;;;9.02;6.07;;;;;;;;;;5033761;28;20086;-80
2021/07/27 16:27:35;;;;;;;10.48;5.30;;;;;;;;;;5026599;28;20033;-82
2021/07/27 16:30:20;;;;;;;12.27;5.73;;;;;;;;;;5047774;28;20025;-81
2021/07/27 16:33:05;;;;;;;7.38;5.40;;;;;;;;;;5023165;28;20424;-80
2021/07/27 16:35:52;;;;;;;7.72;5.90;;;;;;;;;;5026555;28;20025;-83
2021/07/27 16:38:38;;;;;;;7.50;5.82;;;;;;;;;;5027243;28;20083;-81
2021/07/27 16:41:23;;;;;;;14.38;6.00;;;;;;;;;;5031628;28;20176;-79
2021/07/27 16:44:11;;;;;;;9.35;6.15;;;;;;;;;;5029995;28;20025;-79
2021/07/27 16:47:03;;;;;;;12.52;5.55;;;;;;;;;;5025375;28;20033;-78
2021/07/27 16:49:49;;;;;;;11.50;6.35;;;;;;;;;;5025950;28;20037;-77
2021/07/27 16:52:34;;;;;;;8.63;5.70;;;;;;;;;;5020799;28;20033;-78
2021/07/27 16:55:19;;;;;;;12.25;6.10;;;;;;;;;;5020129;28;20025;-78
2021/07/27 16:58:04;;;;;;;10.75;6.53;;;;;;;;;;5015968;28;20567;-80
2021/07/27 17:00:50;;;;;;;9.57;5.65;;;;;;;;;;5017815;28;20021;-83